createdAt,value
2018-08-19T00:01:03.651Z,80.60
2018-08-19T00:03:37.045Z,80.50
2018-08-19T00:06:09.081Z,80.10
2018-08-19T00:08:41.094Z,79.60
2018-08-19T00:11:13.111Z,79.50
2018-08-19T00:13:45.039Z,79.60
2018-08-19T00:16:17.199Z,79.80
2018-08-19T00:18:49.364Z,80.00
2018-08-19T00:21:21.738Z,80.20
2018-08-19T00:23:54.197Z,80.30
2018-08-19T00:26:26.283Z,80.40
2018-08-19T00:28:59.102Z,80.70
2018-08-19T00:31:30.917Z,80.70
2018-08-19T00:34:03.129Z,80.60
2018-08-19T00:36:37.897Z,80.70
2018-08-19T00:39:10.619Z,80.90
2018-08-19T00:41:43.648Z,80.90
2018-08-19T00:44:15.729Z,81.10
2018-08-19T00:46:47.630Z,81.50
2018-08-19T00:49:19.690Z,82.10
2018-08-19T00:52:00.647Z,82.30
2018-08-19T00:54:33.428Z,82.30
2018-08-19T00:57:08.471Z,82.20
2018-08-19T00:59:41.047Z,82.20
2018-08-19T01:02:14.986Z,82.00
2018-08-19T01:04:47.019Z,81.90
2018-08-19T01:07:19.031Z,82.00
2018-08-19T01:09:53.293Z,82.00
2018-08-19T01:12:25.349Z,82.00
2018-08-19T01:14:57.412Z,82.30
2018-08-19T01:17:34.245Z,82.20
2018-08-19T01:20:09.158Z,82.30
2018-08-19T01:22:44.006Z,82.60
2018-08-19T01:25:16.305Z,82.60
2018-08-19T01:27:48.508Z,82.40
2018-08-19T01:30:22.975Z,82.60
2018-08-19T01:32:54.965Z,82.70
2018-08-19T01:35:32.347Z,82.70
2018-08-19T01:38:05.151Z,82.70
2018-08-19T01:40:37.034Z,83.20
2018-08-19T01:43:09.459Z,83.30
2018-08-19T01:45:41.795Z,84.30
2018-08-19T01:48:13.864Z,83.50
2018-08-19T01:50:45.877Z,83.40
2018-08-19T01:53:17.740Z,83.80
2018-08-19T01:55:49.641Z,83.60
2018-08-19T01:58:22.619Z,84.10
2018-08-19T02:00:54.703Z,83.10
2018-08-19T02:03:27.002Z,83.20
2018-08-19T02:05:58.987Z,84.10
2018-08-19T02:08:31.064Z,84.40
2018-08-19T02:11:03.390Z,84.50
2018-08-19T02:13:35.474Z,83.90
2018-08-19T02:16:11.902Z,84.00
2018-08-19T02:18:43.592Z,83.30
2018-08-19T02:21:15.357Z,83.50
2018-08-19T02:23:47.381Z,84.20
2018-08-19T02:26:23.498Z,83.40
2018-08-19T02:28:55.263Z,83.70
2018-08-19T02:31:27.383Z,83.60
2018-08-19T02:33:59.573Z,83.40
2018-08-19T02:36:31.333Z,83.30
2018-08-19T02:39:03.533Z,83.30
2018-08-19T02:41:35.509Z,83.00
2018-08-19T02:44:08.680Z,83.60
2018-08-19T02:46:40.801Z,84.00
2018-08-19T02:49:12.980Z,83.80
2018-08-19T02:51:44.920Z,83.60
2018-08-19T02:54:17.110Z,83.40
2018-08-19T02:56:49.110Z,83.50
2018-08-19T02:59:20.775Z,83.60
2018-08-19T03:01:52.759Z,84.00
2018-08-19T03:04:25.430Z,84.00
2018-08-19T03:06:57.192Z,84.00
2018-08-19T03:09:29.516Z,84.00
2018-08-19T03:12:16.723Z,84.80
2018-08-19T03:14:48.665Z,85.10
2018-08-19T03:17:20.534Z,85.40
2018-08-19T03:19:56.080Z,85.30
2018-08-19T03:22:28.588Z,85.40
2018-08-19T03:25:03.009Z,85.70
2018-08-19T03:27:36.596Z,85.40
2018-08-19T03:30:16.316Z,85.50
2018-08-19T03:32:53.011Z,85.40
2018-08-19T03:35:25.300Z,85.50
2018-08-19T03:37:59.174Z,85.30
2018-08-19T03:40:32.018Z,84.50
2018-08-19T03:43:04.176Z,84.40
2018-08-19T03:45:35.967Z,84.20
2018-08-19T03:48:08.047Z,84.50
2018-08-19T03:50:40.362Z,85.00
2018-08-19T03:53:13.065Z,84.60
2018-08-19T03:55:45.041Z,85.10
2018-08-19T03:58:17.080Z,84.90
2018-08-19T04:00:49.616Z,85.40
2018-08-19T04:03:25.425Z,84.90
2018-08-19T04:06:01.657Z,85.00
2018-08-19T04:08:40.733Z,84.80
2018-08-19T04:11:13.260Z,84.40
2018-08-19T04:13:45.108Z,83.60
2018-08-19T04:16:16.991Z,83.30
2018-08-19T04:18:49.275Z,83.10
2018-08-19T04:21:21.166Z,82.80
2018-08-19T04:23:53.011Z,82.90
2018-08-19T04:26:24.867Z,82.80
2018-08-19T04:28:56.738Z,83.00
2018-08-19T04:31:28.451Z,83.40
2018-08-19T04:34:00.224Z,83.20
2018-08-19T04:36:32.159Z,83.40
2018-08-19T04:39:05.296Z,83.70
2018-08-19T04:41:37.641Z,83.70
2018-08-19T04:44:09.972Z,83.50
2018-08-19T04:46:42.028Z,83.40
2018-08-19T04:49:15.288Z,83.20
2018-08-19T04:51:47.698Z,83.00
2018-08-19T04:54:19.478Z,82.80
2018-08-19T04:56:51.822Z,82.20
2018-08-19T04:59:23.845Z,81.90
2018-08-19T05:01:56.095Z,81.90
2018-08-19T05:04:28.290Z,81.70
2018-08-19T05:07:00.529Z,81.30
2018-08-19T05:09:32.564Z,81.00
2018-08-19T05:12:04.815Z,80.60
2018-08-19T05:14:36.675Z,80.30
2018-08-19T05:17:08.531Z,79.90
2018-08-19T05:19:40.589Z,79.30
2018-08-19T05:22:15.261Z,79.00
2018-08-19T05:24:47.371Z,78.70
2018-08-19T05:27:20.056Z,78.10
2018-08-19T05:29:53.633Z,78.00
2018-08-19T05:32:25.661Z,76.40
2018-08-19T05:34:57.691Z,75.60
2018-08-19T05:37:29.770Z,74.60
2018-08-19T05:40:01.883Z,73.80
2018-08-19T05:42:33.973Z,73.00
2018-08-19T05:45:06.581Z,73.00
2018-08-19T05:47:39.046Z,73.00
2018-08-19T05:50:11.474Z,72.80
2018-08-19T05:52:43.994Z,71.80
2018-08-19T05:55:16.381Z,72.60
2018-08-19T06:00:33.160Z,71.80
2018-08-19T06:03:05.461Z,70.70
2018-08-19T06:05:37.422Z,70.20
2018-08-19T06:08:13.231Z,70.00
2018-08-19T06:10:45.637Z,69.70
2018-08-19T06:13:17.817Z,68.70
2018-08-19T06:15:49.699Z,69.20
2018-08-19T06:18:22.143Z,68.60
2018-08-19T06:20:54.085Z,67.60
2018-08-19T06:23:26.069Z,67.50
2018-08-19T06:25:58.194Z,67.50
2018-08-19T06:28:30.463Z,67.10
2018-08-19T06:31:02.643Z,65.70
2018-08-19T06:33:35.447Z,64.50
2018-08-19T06:36:07.681Z,65.10
2018-08-19T06:38:39.922Z,65.30
2018-08-19T06:41:11.595Z,63.00
2018-08-19T06:43:43.788Z,63.40
2018-08-19T06:46:16.816Z,62.50
2018-08-19T06:48:49.776Z,61.20
2018-08-19T06:51:21.854Z,60.30
2018-08-19T06:53:54.135Z,61.20
2018-08-19T06:56:26.519Z,60.00
2018-08-19T06:58:58.952Z,58.70
2018-08-19T07:01:30.978Z,59.00
2018-08-19T07:04:02.923Z,60.00
2018-08-19T07:06:35.252Z,58.70
2018-08-19T07:09:08.237Z,58.80
2018-08-19T07:11:58.324Z,57.40
2018-08-19T07:14:30.889Z,57.60
2018-08-19T07:17:03.138Z,57.70
2018-08-19T07:19:37.509Z,57.70
2018-08-19T07:22:11.650Z,57.10
2018-08-19T07:24:44.033Z,55.70
2018-08-19T07:27:16.285Z,54.70
2018-08-19T07:29:48.632Z,54.50
2018-08-19T07:32:21.001Z,55.00
2018-08-19T07:34:53.269Z,54.50
2018-08-19T07:37:25.752Z,53.60
2018-08-19T07:39:59.971Z,52.90
2018-08-19T07:42:32.229Z,52.20
2018-08-19T07:45:04.516Z,53.20
2018-08-19T07:47:37.122Z,53.10
2018-08-19T07:50:10.490Z,52.60
2018-08-19T07:52:42.167Z,52.60
2018-08-19T07:55:14.351Z,52.70
2018-08-19T07:57:46.366Z,52.10
2018-08-19T08:00:24.942Z,52.20
2018-08-19T08:02:57.337Z,50.30
2018-08-19T08:05:35.398Z,51.70
2018-08-19T08:08:09.090Z,51.20
2018-08-19T08:10:41.470Z,49.70
2018-08-19T08:13:14.493Z,48.90
2018-08-19T08:15:52.472Z,46.80
2018-08-19T08:18:24.997Z,48.20
2018-08-19T08:21:04.412Z,47.00
2018-08-19T08:23:36.773Z,46.50
2018-08-19T08:26:08.715Z,46.10
2018-08-19T08:28:41.374Z,44.90
2018-08-19T08:31:13.587Z,44.50
2018-08-19T08:33:46.012Z,45.40
2018-08-19T08:36:20.738Z,44.30
2018-08-19T08:38:54.339Z,42.20
2018-08-19T08:41:27.618Z,43.80
2018-08-19T08:44:00.293Z,42.60
2018-08-19T08:46:34.020Z,44.70
2018-08-19T08:49:07.846Z,44.80
2018-08-19T08:51:41.588Z,43.50
2018-08-19T08:54:13.631Z,44.10
2018-08-19T08:56:46.024Z,42.50
2018-08-19T08:59:18.641Z,41.80
2018-08-19T09:01:50.502Z,38.80
2018-08-19T09:04:22.338Z,38.50
2018-08-19T09:06:54.916Z,39.20
2018-08-19T09:09:26.831Z,38.10
2018-08-19T09:11:59.101Z,39.30
2018-08-19T09:14:31.068Z,36.40
2018-08-19T09:17:03.495Z,36.30
2018-08-19T09:19:44.824Z,36.70
2018-08-19T09:22:19.487Z,36.80
2018-08-19T09:24:51.571Z,33.30
2018-08-19T09:27:23.587Z,34.80
2018-08-19T09:29:55.984Z,34.60
2018-08-19T09:32:27.805Z,32.30
2018-08-19T09:34:59.317Z,33.30
2018-08-19T09:37:31.606Z,33.40
2018-08-19T09:40:03.672Z,32.10
2018-08-19T09:42:35.928Z,33.30
2018-08-19T09:45:08.237Z,33.90
2018-08-19T09:47:40.772Z,34.80
2018-08-19T09:50:12.566Z,35.80
2018-08-19T09:52:44.741Z,35.10
2018-08-19T09:55:18.006Z,34.30
2018-08-19T09:57:57.245Z,36.00
2018-08-19T10:00:33.802Z,34.00
2018-08-19T10:03:05.988Z,34.60
2018-08-19T10:05:38.586Z,38.50
2018-08-19T10:08:10.916Z,37.20
2018-08-19T10:10:43.208Z,34.70
2018-08-19T10:13:17.084Z,34.20
2018-08-19T10:15:49.218Z,34.70
2018-08-19T10:18:21.656Z,36.10
2018-08-19T10:20:54.619Z,32.90
2018-08-19T10:23:27.501Z,32.80
2018-08-19T10:26:00.541Z,34.90
2018-08-19T10:28:32.966Z,34.40
2018-08-19T10:31:10.876Z,32.70
2018-08-19T10:33:43.283Z,31.90
2018-08-19T10:36:15.080Z,32.60
2018-08-19T10:38:47.402Z,31.10
2018-08-19T10:41:20.291Z,30.40
2018-08-19T10:43:52.837Z,31.50
2018-08-19T10:46:24.959Z,31.40
2018-08-19T10:48:58.574Z,32.20
2018-08-19T10:51:30.624Z,33.10
2018-08-19T10:54:02.791Z,32.30
2018-08-19T10:56:34.852Z,31.30
2018-08-19T10:59:08.037Z,28.90
2018-08-19T11:01:40.284Z,29.40
2018-08-19T11:04:12.477Z,30.20
2018-08-19T11:06:44.931Z,29.20
2018-08-19T11:09:17.943Z,30.70
2018-08-19T11:11:50.192Z,30.50
2018-08-19T11:14:22.229Z,31.60
2018-08-19T11:16:54.253Z,32.00
2018-08-19T11:19:31.983Z,32.80
2018-08-19T11:22:04.058Z,31.50
2018-08-19T11:24:39.404Z,31.80
2018-08-19T11:27:11.567Z,31.00
2018-08-19T11:29:43.745Z,29.90
2018-08-19T11:32:38.555Z,31.20
2018-08-19T11:35:10.892Z,31.70
2018-08-19T11:37:43.174Z,29.40
2018-08-19T11:40:15.636Z,29.30
2018-08-19T11:42:48.067Z,28.70
2018-08-19T11:45:20.927Z,28.70
2018-08-19T11:47:57.296Z,30.30
2018-08-19T11:50:29.589Z,31.10
2018-08-19T11:53:02.780Z,30.90
2018-08-19T11:55:34.883Z,29.50
2018-08-19T11:58:08.039Z,29.20
2018-08-19T12:00:46.755Z,29.70
2018-08-19T12:03:19.193Z,31.90
2018-08-19T12:05:51.385Z,30.70
2018-08-19T12:08:23.639Z,30.80
2018-08-19T12:11:10.904Z,30.60
2018-08-19T12:13:43.469Z,28.70
2018-08-19T12:16:16.997Z,30.00
2018-08-19T12:18:49.730Z,29.00
2018-08-19T12:21:23.277Z,28.60
2018-08-19T12:24:16.306Z,28.90
2018-08-19T12:26:49.575Z,29.10
2018-08-19T12:29:23.863Z,28.90
2018-08-19T12:32:02.852Z,28.80
2018-08-19T12:34:39.722Z,29.40
2018-08-19T12:37:14.558Z,29.50
2018-08-19T12:39:48.426Z,30.10
2018-08-19T12:42:22.758Z,30.00
2018-08-19T12:45:11.633Z,30.50
2018-08-19T12:47:45.040Z,29.90
2018-08-19T12:50:18.228Z,30.00
2018-08-19T12:52:52.788Z,31.80
2018-08-19T12:55:26.200Z,29.70
2018-08-19T12:58:03.761Z,31.20
2018-08-19T13:00:38.424Z,32.80
2018-08-19T13:03:12.649Z,34.10
2018-08-19T13:06:01.322Z,33.50
2018-08-19T13:08:35.013Z,36.50
2018-08-19T13:11:09.750Z,33.40
2018-08-19T13:13:43.231Z,30.20
2018-08-19T13:16:16.281Z,29.70
2018-08-19T13:18:50.780Z,29.60
2018-08-19T13:21:27.171Z,29.60
2018-08-19T13:24:00.917Z,29.80
2018-08-19T13:26:34.761Z,29.10
2018-08-19T13:29:09.464Z,35.20
2018-08-19T13:31:44.134Z,39.10
2018-08-19T13:34:18.324Z,40.40
2018-08-19T13:36:51.854Z,41.00
2018-08-19T13:39:26.087Z,42.10
2018-08-19T13:41:59.301Z,43.10
2018-08-19T13:44:32.902Z,42.30
2018-08-19T13:47:06.827Z,40.00
2018-08-19T13:49:40.885Z,40.90
2018-08-19T13:52:14.583Z,40.40
2018-08-19T13:55:04.181Z,40.20
2018-08-19T13:57:38.601Z,39.90
2018-08-19T14:00:15.684Z,41.00
2018-08-19T14:02:50.148Z,40.70
2018-08-19T14:05:23.835Z,38.80
2018-08-19T14:07:58.098Z,38.00
2018-08-19T14:10:31.303Z,39.20
2018-08-19T14:13:05.589Z,36.40
2018-08-19T14:15:38.866Z,38.40
2018-08-19T14:18:12.545Z,40.20
2018-08-19T14:20:46.091Z,40.50
2018-08-19T14:23:21.151Z,41.30
2018-08-19T14:25:54.686Z,40.30
2018-08-19T14:28:28.817Z,40.50
2018-08-19T14:31:02.614Z,39.00
2018-08-19T14:33:36.405Z,39.50
2018-08-19T14:36:10.648Z,40.10
2018-08-19T14:38:44.178Z,39.70
2018-08-19T14:41:18.667Z,39.90
2018-08-19T14:44:03.665Z,40.70
2018-08-19T14:46:37.770Z,41.90
2018-08-19T14:49:11.108Z,42.00
2018-08-19T14:52:01.262Z,41.60
2018-08-19T14:54:34.814Z,40.10
2018-08-19T14:57:08.749Z,40.20
2018-08-19T14:59:41.588Z,40.80
2018-08-19T15:02:14.391Z,41.30
2018-08-19T15:04:49.083Z,41.20
2018-08-19T15:07:22.352Z,41.20
2018-08-19T15:09:56.726Z,40.50
2018-08-19T15:12:32.761Z,40.80
2018-08-19T15:15:06.522Z,41.70
2018-08-19T15:17:41.022Z,41.40
2018-08-19T15:20:13.981Z,41.30
2018-08-19T15:22:45.160Z,41.90
2018-08-19T15:25:17.453Z,42.60
2018-08-19T15:27:53.929Z,42.90
2018-08-19T15:30:30.286Z,43.30
2018-08-19T15:33:01.783Z,43.90
2018-08-19T15:35:32.953Z,43.60
2018-08-19T15:38:04.039Z,43.80
2018-08-19T15:40:41.544Z,44.40
2018-08-19T15:43:13.365Z,43.40
2018-08-19T15:45:45.255Z,43.30
2018-08-19T15:48:16.428Z,43.60
2018-08-19T15:50:47.771Z,43.00
2018-08-19T15:53:19.868Z,44.00
2018-08-19T15:55:51.331Z,43.50
2018-08-19T15:58:22.569Z,43.90
2018-08-19T16:00:53.875Z,44.10
2018-08-19T16:03:25.075Z,43.00
2018-08-19T16:05:56.436Z,43.50
2018-08-19T16:08:27.632Z,43.80
2018-08-19T16:10:58.945Z,44.00
2018-08-19T16:13:30.371Z,44.30
2018-08-19T16:16:01.591Z,44.40
2018-08-19T16:18:33.308Z,45.70
2018-08-19T16:21:04.817Z,45.30
2018-08-19T16:23:36.209Z,45.70
2018-08-19T16:26:07.438Z,47.30
2018-08-19T16:28:38.561Z,47.10
2018-08-19T16:31:09.946Z,47.50
2018-08-19T16:33:41.290Z,48.00
2018-08-19T16:36:12.547Z,47.30
2018-08-19T16:38:43.882Z,47.20
2018-08-19T16:41:15.231Z,47.30
2018-08-19T16:43:46.556Z,47.00
2018-08-19T16:46:18.410Z,47.30
2018-08-19T16:48:49.945Z,47.60
2018-08-19T16:51:21.563Z,47.90
2018-08-19T16:53:52.468Z,48.00
2018-08-19T16:56:23.577Z,48.80
2018-08-19T16:58:54.986Z,49.40
2018-08-19T17:01:26.224Z,49.80
2018-08-19T17:03:57.408Z,50.00
2018-08-19T17:06:28.480Z,50.10
2018-08-19T17:08:59.571Z,50.50
2018-08-19T17:11:30.642Z,50.40
2018-08-19T17:14:02.173Z,50.50
2018-08-19T17:16:33.623Z,50.60
2018-08-19T17:19:04.731Z,50.70
2018-08-19T17:21:35.820Z,50.80
2018-08-19T17:24:06.961Z,51.20
2018-08-19T17:26:38.288Z,51.20
2018-08-19T17:29:14.590Z,51.40
2018-08-19T17:31:45.998Z,51.80
2018-08-19T17:34:19.927Z,51.60
2018-08-19T17:36:51.143Z,52.10
2018-08-19T17:39:23.487Z,52.50
2018-08-19T17:41:54.947Z,53.80
2018-08-19T17:44:26.076Z,55.20
2018-08-19T17:46:58.289Z,55.70
2018-08-19T17:49:30.462Z,56.50
2018-08-19T17:52:02.534Z,57.40
2018-08-19T17:54:33.777Z,57.00
2018-08-19T17:57:05.059Z,56.70
2018-08-19T17:59:36.148Z,57.20
2018-08-19T18:02:07.931Z,57.80
2018-08-19T18:04:44.480Z,58.70
2018-08-19T18:07:28.246Z,59.00
2018-08-19T18:10:00.384Z,59.60
2018-08-19T18:12:31.681Z,60.00
2018-08-19T18:15:03.156Z,60.20
2018-08-19T18:17:34.170Z,60.30
2018-08-19T18:20:30.322Z,60.60
2018-08-19T18:23:01.565Z,60.60
2018-08-19T18:25:32.803Z,60.90
2018-08-19T18:28:44.237Z,61.10
2018-08-19T18:31:17.223Z,61.60
2018-08-19T18:33:53.754Z,62.80
2018-08-19T18:36:26.163Z,62.20
2018-08-19T18:38:57.773Z,62.70
2018-08-19T18:41:31.862Z,63.00
2018-08-19T18:44:10.288Z,63.30
2018-08-19T18:46:41.633Z,63.40
2018-08-19T18:49:14.105Z,63.60
2018-08-19T18:51:49.716Z,63.70
2018-08-19T18:54:32.791Z,64.00
2018-08-19T18:57:08.762Z,64.50
2018-08-19T18:59:44.783Z,65.00
2018-08-19T19:02:16.093Z,64.80
2018-08-19T19:04:47.290Z,64.80
2018-08-19T19:07:18.659Z,65.70
2018-08-19T19:09:50.589Z,66.00
2018-08-19T19:12:24.153Z,66.30
2018-08-19T19:14:55.449Z,65.90
2018-08-19T19:17:26.700Z,65.90
2018-08-19T19:19:58.084Z,66.30
2018-08-19T19:22:29.326Z,66.60
2018-08-19T19:25:00.374Z,66.90
2018-08-19T19:27:31.726Z,67.10
2018-08-19T19:30:04.955Z,67.20
2018-08-19T19:32:36.032Z,68.50
2018-08-19T19:35:11.213Z,68.30
2018-08-19T19:37:42.531Z,68.20
2018-08-19T19:40:15.806Z,68.40
2018-08-19T19:42:53.592Z,68.90
2018-08-19T19:45:25.443Z,69.00
2018-08-19T19:47:56.718Z,69.20
2018-08-19T19:50:28.310Z,69.80
2018-08-19T19:52:59.498Z,69.90
2018-08-19T19:55:30.612Z,70.10
2018-08-19T19:58:01.810Z,70.00
2018-08-19T20:00:52.588Z,70.10
2018-08-19T20:03:24.613Z,70.00
2018-08-19T20:05:55.947Z,69.90
2018-08-19T20:08:27.690Z,69.90
2018-08-19T20:10:59.046Z,70.10
2018-08-19T20:13:30.376Z,70.30
2018-08-19T20:16:01.864Z,70.60
2018-08-19T20:18:33.113Z,70.90
2018-08-19T20:21:11.458Z,71.40
2018-08-19T20:23:42.907Z,71.90
2018-08-19T20:26:15.249Z,72.10
2018-08-19T20:28:47.913Z,72.20
2018-08-19T20:31:18.839Z,72.00
2018-08-19T20:33:50.246Z,72.20
2018-08-19T20:36:21.808Z,72.30
2018-08-19T20:38:52.860Z,72.50
2018-08-19T20:41:24.305Z,72.90
2018-08-19T20:43:55.476Z,73.40
2018-08-19T20:46:27.590Z,73.60
2018-08-19T20:48:58.709Z,73.60
2018-08-19T20:51:30.233Z,74.00
2018-08-19T20:54:01.211Z,73.90
2018-08-19T20:56:32.330Z,73.70
2018-08-19T20:59:03.432Z,73.80
2018-08-19T21:01:34.600Z,73.90
2018-08-19T21:04:05.810Z,73.90
2018-08-19T21:06:36.821Z,73.80
2018-08-19T21:09:08.625Z,73.90
2018-08-19T21:11:39.924Z,73.50
2018-08-19T21:14:11.270Z,73.80
2018-08-19T21:16:42.533Z,73.60
2018-08-19T21:19:13.818Z,73.70
2018-08-19T21:21:44.975Z,73.50
2018-08-19T21:24:16.060Z,73.50
2018-08-19T21:26:51.417Z,73.80
2018-08-19T21:29:22.729Z,73.60
2018-08-19T21:31:54.048Z,73.50
2018-08-19T21:34:25.452Z,73.60
2018-08-19T21:36:56.819Z,73.50
2018-08-19T21:39:27.944Z,73.70
2018-08-19T21:41:59.038Z,73.90
2018-08-19T21:44:30.165Z,74.30
2018-08-19T21:47:01.351Z,74.50
2018-08-19T21:49:32.355Z,74.60
2018-08-19T21:52:03.601Z,75.00
2018-08-19T21:54:34.592Z,75.30
2018-08-19T21:57:05.774Z,75.20
2018-08-19T21:59:37.258Z,74.90
2018-08-19T22:02:12.232Z,74.90
2018-08-19T22:04:43.061Z,75.00
2018-08-19T22:07:13.981Z,74.90
2018-08-19T22:09:45.194Z,75.20
2018-08-19T22:12:16.177Z,75.10
2018-08-19T22:14:47.195Z,75.10
2018-08-19T22:17:18.303Z,75.40
2018-08-19T22:19:49.525Z,75.00
2018-08-19T22:22:20.658Z,75.10
2018-08-19T22:24:51.827Z,75.40
2018-08-19T22:27:22.940Z,75.20
2018-08-19T22:29:53.985Z,75.10
2018-08-19T22:32:25.105Z,75.40
2018-08-19T22:34:56.137Z,75.50
2018-08-19T22:37:28.116Z,75.60
2018-08-19T22:39:59.290Z,75.60
2018-08-19T22:42:30.268Z,75.80
2018-08-19T22:45:01.484Z,76.30
2018-08-19T22:47:32.718Z,76.80
2018-08-19T22:50:03.636Z,76.90
2018-08-19T22:52:34.767Z,76.80
2018-08-19T22:55:05.916Z,76.90
2018-08-19T22:57:36.861Z,77.20
2018-08-19T23:00:09.096Z,77.40
2018-08-19T23:02:40.042Z,77.40
2018-08-19T23:05:10.933Z,77.20
2018-08-19T23:07:41.880Z,77.00
2018-08-19T23:10:12.892Z,77.00
2018-08-19T23:12:43.939Z,76.70
2018-08-19T23:15:50.138Z,77.10
2018-08-19T23:18:21.204Z,77.20
2018-08-19T23:20:52.064Z,77.30
2018-08-19T23:23:22.953Z,77.10
2018-08-19T23:25:53.823Z,76.90
2018-08-19T23:28:25.313Z,77.00
2018-08-19T23:30:56.688Z,77.70
2018-08-19T23:33:27.763Z,78.50
2018-08-19T23:35:58.707Z,78.20
2018-08-19T23:38:29.561Z,77.60
2018-08-19T23:41:00.633Z,77.20
2018-08-19T23:43:31.716Z,77.00
2018-08-19T23:46:02.713Z,77.10
2018-08-19T23:48:33.912Z,77.50
2018-08-19T23:51:04.804Z,77.90
2018-08-19T23:53:35.860Z,78.10
2018-08-19T23:56:06.943Z,77.90
2018-08-19T23:58:37.714Z,78.30
